sensor_id;sensor_type;location;lat;lon;timestamp;pressure;altitude;pressure_sealevel;temperature;humidity
62122;BME280;48108;47.532;19.084;2023-06-22T03:59:03;100645.03;;;20.29;100.00
62122;BME280;48108;47.532;19.084;2023-06-22T04:02:06;100640.03;;;20.38;100.00
62122;BME280;48108;47.532;19.084;2023-06-22T04:05:09;100643.72;;;20.44;100.00
62122;BME280;48108;47.532;19.084;2023-06-22T04:08:13;100648.50;;;20.48;100.00
62122;BME280;48108;47.532;19.084;2023-06-22T04:11:17;100650.94;;;20.56;100.00
62122;BME280;48108;47.532;19.084;2023-06-22T04:14:20;100651.75;;;20.69;100.00
62122;BME280;48108;47.532;19.084;2023-06-22T04:17:23;100647.72;;;20.71;100.00
62122;BME280;48108;47.532;19.084;2023-06-22T04:20:27;100655.53;;;20.79;100.00
62122;BME280;48108;47.532;19.084;2023-06-22T04:23:31;100652.72;;;20.86;100.00
62122;BME280;48108;47.532;19.084;2023-06-22T04:26:34;100649.72;;;20.88;100.00
62122;BME280;48108;47.532;19.084;2023-06-22T04:29:40;100664.69;;;20.97;100.00
62122;BME280;48108;47.532;19.084;2023-06-22T04:32:51;100658.16;;;21.10;100.00
62122;BME280;48108;47.532;19.084;2023-06-22T04:36:00;100655.13;;;21.23;100.00
62122;BME280;48108;47.532;19.084;2023-06-22T04:39:08;100658.81;;;21.28;100.00
62122;BME280;48108;47.532;19.084;2023-06-22T04:42:12;100661.06;;;21.32;100.00
62122;BME280;48108;47.532;19.084;2023-06-22T04:45:15;100653.69;;;21.44;100.00
62122;BME280;48108;47.532;19.084;2023-06-22T04:48:18;100654.88;;;21.48;100.00
62122;BME280;48108;47.532;19.084;2023-06-22T04:51:20;100660.84;;;21.45;100.00
62122;BME280;48108;47.532;19.084;2023-06-22T04:54:24;100660.94;;;21.50;100.00
62122;BME280;48108;47.532;19.084;2023-06-22T04:57:27;100662.22;;;21.59;100.00
62122;BME280;48108;47.532;19.084;2023-06-22T05:00:35;100660.97;;;21.67;100.00
62122;BME280;48108;47.532;19.084;2023-06-22T05:03:38;100664.31;;;21.69;100.00
62122;BME280;48108;47.532;19.084;2023-06-22T05:06:44;100666.03;;;21.87;100.00
62122;BME280;48108;47.532;19.084;2023-06-22T05:09:47;100660.97;;;21.95;100.00
62122;BME280;48108;47.532;19.084;2023-06-22T05:12:50;100664.84;;;22.11;100.00
62122;BME280;48108;47.532;19.084;2023-06-22T05:15:53;100672.53;;;22.26;100.00
62122;BME280;48108;47.532;19.084;2023-06-22T05:19:05;100672.53;;;22.43;100.00
62122;BME280;48108;47.532;19.084;2023-06-22T05:22:08;100672.19;;;22.56;100.00
62122;BME280;48108;47.532;19.084;2023-06-22T05:25:11;100678.09;;;22.65;100.00
62122;BME280;48108;47.532;19.084;2023-06-22T05:28:14;100681.34;;;22.62;100.00
62122;BME280;48108;47.532;19.084;2023-06-22T05:31:17;100679.75;;;22.66;100.00
62122;BME280;48108;47.532;19.084;2023-06-22T05:34:22;100689.97;;;22.87;100.00
62122;BME280;48108;47.532;19.084;2023-06-22T05:37:25;100688.31;;;23.03;100.00
62122;BME280;48108;47.532;19.084;2023-06-22T05:40:28;100688.59;;;23.24;100.00
62122;BME280;48108;47.532;19.084;2023-06-22T05:43:32;100695.88;;;23.35;100.00
62122;BME280;48108;47.532;19.084;2023-06-22T05:46:35;100700.75;;;23.50;100.00
62122;BME280;48108;47.532;19.084;2023-06-22T05:49:38;100701.84;;;23.49;100.00
62122;BME280;48108;47.532;19.084;2023-06-22T05:52:40;100704.69;;;23.59;100.00
62122;BME280;48108;47.532;19.084;2023-06-22T05:55:43;100705.84;;;23.63;100.00
62122;BME280;48108;47.532;19.084;2023-06-22T05:58:46;100702.22;;;23.80;100.00
62122;BME280;48108;47.532;19.084;2023-06-22T06:01:49;100712.25;;;23.91;100.00
62122;BME280;48108;47.532;19.084;2023-06-22T06:04:53;100705.41;;;23.93;100.00
62122;BME280;48108;47.532;19.084;2023-06-22T06:07:57;100710.47;;;24.07;100.00
62122;BME280;48108;47.532;19.084;2023-06-22T06:11:00;100710.84;;;24.15;100.00
62122;BME280;48108;47.532;19.084;2023-06-22T06:14:03;100713.12;;;24.24;100.00
62122;BME280;48108;47.532;19.084;2023-06-22T06:17:05;100712.72;;;24.37;100.00
62122;BME280;48108;47.532;19.084;2023-06-22T06:20:08;100705.75;;;24.56;100.00
62122;BME280;48108;47.532;19.084;2023-06-22T06:23:12;100705.69;;;24.83;100.00
62122;BME280;48108;47.532;19.084;2023-06-22T06:26:14;100714.78;;;24.89;98.05
62122;BME280;48108;47.532;19.084;2023-06-22T06:29:19;100713.84;;;25.10;98.18
62122;BME280;48108;47.532;19.084;2023-06-22T06:32:22;100699.62;;;25.29;98.49
62122;BME280;48108;47.532;19.084;2023-06-22T06:35:25;100699.69;;;25.34;96.72
62122;BME280;48108;47.532;19.084;2023-06-22T06:38:29;100689.81;;;25.48;98.53
62122;BME280;48108;47.532;19.084;2023-06-22T06:41:32;100695.72;;;25.77;93.53
62122;BME280;48108;47.532;19.084;2023-06-22T06:44:35;100697.16;;;25.95;87.11
62122;BME280;48108;47.532;19.084;2023-06-22T06:47:40;100691.13;;;26.04;83.10
62122;BME280;48108;47.532;19.084;2023-06-22T06:50:43;100693.59;;;26.10;86.16
62122;BME280;48108;47.532;19.084;2023-06-22T06:53:46;100690.84;;;26.15;85.16
62122;BME280;48108;47.532;19.084;2023-06-22T06:56:49;100693.34;;;26.32;80.02
62122;BME280;48108;47.532;19.084;2023-06-22T06:59:52;100693.63;;;26.41;75.63
62122;BME280;48108;47.532;19.084;2023-06-22T07:02:55;100690.59;;;26.48;76.43
62122;BME280;48108;47.532;19.084;2023-06-22T07:05:59;100690.03;;;26.35;72.69
62122;BME280;48108;47.532;19.084;2023-06-22T07:09:02;100683.41;;;26.31;79.30
62122;BME280;48108;47.532;19.084;2023-06-22T07:12:06;100685.09;;;26.53;76.18
62122;BME280;48108;47.532;19.084;2023-06-22T07:15:09;100686.19;;;26.82;72.36
62122;BME280;48108;47.532;19.084;2023-06-22T07:18:14;100686.97;;;26.93;72.44
62122;BME280;48108;47.532;19.084;2023-06-22T07:21:17;100683.66;;;27.01;69.26
62122;BME280;48108;47.532;19.084;2023-06-22T07:24:24;100679.47;;;27.14;69.67
62122;BME280;48108;47.532;19.084;2023-06-22T07:27:26;100680.31;;;27.20;73.27
62122;BME280;48108;47.532;19.084;2023-06-22T07:30:31;100675.06;;;27.23;73.15
62122;BME280;48108;47.532;19.084;2023-06-22T07:33:35;100673.38;;;27.32;74.36
62122;BME280;48108;47.532;19.084;2023-06-22T07:36:38;100681.63;;;27.37;72.28
62122;BME280;48108;47.532;19.084;2023-06-22T07:39:41;100681.25;;;27.59;73.21
62122;BME280;48108;47.532;19.084;2023-06-22T07:42:45;100682.53;;;27.77;72.68
62122;BME280;48108;47.532;19.084;2023-06-22T07:45:50;100670.66;;;27.82;68.92
62122;BME280;48108;47.532;19.084;2023-06-22T07:48:55;100675.06;;;27.83;68.76
62122;BME280;48108;47.532;19.084;2023-06-22T07:51:58;100670.87;;;27.91;67.98
62122;BME280;48108;47.532;19.084;2023-06-22T07:55:01;100674.47;;;27.91;67.40
62122;BME280;48108;47.532;19.084;2023-06-22T07:58:04;100670.91;;;27.86;67.65
62122;BME280;48108;47.532;19.084;2023-06-22T08:01:07;100670.78;;;28.06;67.60
62122;BME280;48108;47.532;19.084;2023-06-22T08:04:12;100667.66;;;28.13;67.72
62122;BME280;48108;47.532;19.084;2023-06-22T08:07:15;100667.09;;;28.16;68.26
62122;BME280;48108;47.532;19.084;2023-06-22T08:10:18;100657.72;;;28.46;67.82
62122;BME280;48108;47.532;19.084;2023-06-22T08:13:21;100657.72;;;28.46;65.51
62122;BME280;48108;47.532;19.084;2023-06-22T08:16:24;100656.09;;;28.40;65.94
62122;BME280;48108;47.532;19.084;2023-06-22T08:19:27;100655.69;;;28.57;67.56
62122;BME280;48108;47.532;19.084;2023-06-22T08:22:32;100655.69;;;28.86;67.66
62122;BME280;48108;47.532;19.084;2023-06-22T08:25:36;100657.22;;;29.02;65.04
62122;BME280;48108;47.532;19.084;2023-06-22T08:28:39;100654.37;;;29.07;63.36
62122;BME280;48108;47.532;19.084;2023-06-22T08:31:42;100655.59;;;28.96;64.41
62122;BME280;48108;47.532;19.084;2023-06-22T08:34:45;100657.56;;;29.20;61.39
62122;BME280;48108;47.532;19.084;2023-06-22T08:37:48;100644.63;;;29.34;60.90
62122;BME280;48108;47.532;19.084;2023-06-22T08:40:55;100648.13;;;29.39;61.39
62122;BME280;48108;47.532;19.084;2023-06-22T08:43:57;100646.44;;;29.44;60.19
62122;BME280;48108;47.532;19.084;2023-06-22T08:47:00;100639.38;;;29.32;59.89
62122;BME280;48108;47.532;19.084;2023-06-22T08:50:05;100639.16;;;29.48;61.70
62122;BME280;48108;47.532;19.084;2023-06-22T08:53:09;100642.31;;;29.60;61.24
62122;BME280;48108;47.532;19.084;2023-06-22T08:56:12;100632.09;;;29.79;60.54
62122;BME280;48108;47.532;19.084;2023-06-22T08:59:15;100633.28;;;29.92;61.47
62122;BME280;48108;47.532;19.084;2023-06-22T09:02:17;100625.94;;;30.01;60.15
62122;BME280;48108;47.532;19.084;2023-06-22T09:05:22;100627.16;;;29.95;59.31
62122;BME280;48108;47.532;19.084;2023-06-22T09:08:24;100620.31;;;29.88;60.35
62122;BME280;48108;47.532;19.084;2023-06-22T09:11:30;100621.53;;;29.81;60.02
62122;BME280;48108;47.532;19.084;2023-06-22T09:14:33;100620.75;;;29.95;61.17
62122;BME280;48108;47.532;19.084;2023-06-22T09:17:36;100618.94;;;30.23;59.74
62122;BME280;48108;47.532;19.084;2023-06-22T09:20:39;100619.59;;;30.47;59.18
62122;BME280;48108;47.532;19.084;2023-06-22T09:23:42;100615.72;;;30.62;57.92
62122;BME280;48108;47.532;19.084;2023-06-22T09:26:45;100616.16;;;30.69;60.73
62122;BME280;48108;47.532;19.084;2023-06-22T09:29:49;100611.34;;;30.75;57.33
62122;BME280;48108;47.532;19.084;2023-06-22T09:32:54;100596.63;;;31.02;56.49
62122;BME280;48108;47.532;19.084;2023-06-22T09:35:57;100598.69;;;31.10;56.45
62122;BME280;48108;47.532;19.084;2023-06-22T09:39:00;100598.59;;;31.15;55.31
62122;BME280;48108;47.532;19.084;2023-06-22T09:42:08;100601.78;;;31.09;57.48
62122;BME280;48108;47.532;19.084;2023-06-22T09:45:11;100601.78;;;31.09;54.30
62122;BME280;48108;47.532;19.084;2023-06-22T09:48:14;100593.94;;;31.25;56.11
62122;BME280;48108;47.532;19.084;2023-06-22T09:51:17;100593.34;;;31.64;55.94
62122;BME280;48108;47.532;19.084;2023-06-22T09:54:21;100593.78;;;31.94;52.84
62122;BME280;48108;47.532;19.084;2023-06-22T09:57:24;100596.25;;;31.95;51.21
62122;BME280;48108;47.532;19.084;2023-06-22T10:00:27;100597.59;;;31.98;51.44
62122;BME280;48108;47.532;19.084;2023-06-22T10:03:30;100593.91;;;32.11;52.89
62122;BME280;48108;47.532;19.084;2023-06-22T10:06:33;100595.53;;;32.35;50.30
62122;BME280;48108;47.532;19.084;2023-06-22T10:09:36;100593.72;;;32.07;51.01
62122;BME280;48108;47.532;19.084;2023-06-22T10:12:47;100597.09;;;32.18;52.50
62122;BME280;48108;47.532;19.084;2023-06-22T10:15:51;100593.25;;;32.59;53.91
62122;BME280;48108;47.532;19.084;2023-06-22T10:18:53;100590.75;;;32.97;50.56
62122;BME280;48108;47.532;19.084;2023-06-22T10:21:56;100591.84;;;33.28;49.78
62122;BME280;48108;47.532;19.084;2023-06-22T10:24:59;100595.84;;;32.95;46.85
62122;BME280;48108;47.532;19.084;2023-06-22T10:28:02;100597.88;;;32.72;49.15
62122;BME280;48108;47.532;19.084;2023-06-22T10:31:05;100591.34;;;32.77;47.71
62122;BME280;48108;47.532;19.084;2023-06-22T10:34:08;100584.31;;;32.80;50.18
62122;BME280;48108;47.532;19.084;2023-06-22T10:37:11;100581.03;;;32.46;48.88
62122;BME280;48108;47.532;19.084;2023-06-22T10:40:15;100582.87;;;32.91;48.67
62122;BME280;48108;47.532;19.084;2023-06-22T10:43:18;100581.22;;;33.47;48.76
62122;BME280;48108;47.532;19.084;2023-06-22T10:46:21;100580.06;;;34.18;44.23
62122;BME280;48108;47.532;19.084;2023-06-22T10:49:24;100567.84;;;34.31;46.01
62122;BME280;48108;47.532;19.084;2023-06-22T10:52:27;100573.84;;;34.97;44.86
62122;BME280;48108;47.532;19.084;2023-06-22T10:55:29;100570.47;;;35.42;42.13
62122;BME280;48108;47.532;19.084;2023-06-22T10:58:52;100569.69;;;35.63;41.30
62122;BME280;48108;47.532;19.084;2023-06-22T11:01:56;100564.03;;;36.05;41.22
62122;BME280;48108;47.532;19.084;2023-06-22T11:05:00;100570.78;;;36.49;42.44
62122;BME280;48108;47.532;19.084;2023-06-22T11:08:03;100565.22;;;36.98;38.43
62122;BME280;48108;47.532;19.084;2023-06-22T11:11:06;100567.91;;;36.58;37.68
62122;BME280;48108;47.532;19.084;2023-06-22T11:14:09;100565.81;;;36.67;40.08
62122;BME280;48108;47.532;19.084;2023-06-22T11:17:12;100558.31;;;36.96;38.85
62122;BME280;48108;47.532;19.084;2023-06-22T11:20:15;100555.59;;;37.49;36.43
62122;BME280;48108;47.532;19.084;2023-06-22T11:23:18;100556.34;;;37.61;35.64
62122;BME280;48108;47.532;19.084;2023-06-22T11:26:21;100556.75;;;37.76;35.66
62122;BME280;48108;47.532;19.084;2023-06-22T11:29:24;100550.59;;;37.17;36.37
62122;BME280;48108;47.532;19.084;2023-06-22T11:32:39;100535.41;;;38.31;36.32
62122;BME280;48108;47.532;19.084;2023-06-22T11:35:42;100550.59;;;37.98;34.13
62122;BME280;48108;47.532;19.084;2023-06-22T11:38:45;100541.66;;;36.29;36.96
62122;BME280;48108;47.532;19.084;2023-06-22T11:41:48;100549.03;;;35.68;37.60
62122;BME280;48108;47.532;19.084;2023-06-22T11:44:51;100544.63;;;36.45;37.46
62122;BME280;48108;47.532;19.084;2023-06-22T11:47:54;100526.34;;;39.20;32.70
62122;BME280;48108;47.532;19.084;2023-06-22T11:50:57;100530.53;;;40.27;31.41
62122;BME280;48108;47.532;19.084;2023-06-22T11:54:02;100534.91;;;41.88;27.87
62122;BME280;48108;47.532;19.084;2023-06-22T11:57:05;100524.34;;;42.67;28.73
62122;BME280;48108;47.532;19.084;2023-06-22T12:00:09;100521.87;;;43.17;26.24
62122;BME280;48108;47.532;19.084;2023-06-22T12:03:20;100528.53;;;43.53;26.66
62122;BME280;48108;47.532;19.084;2023-06-22T12:06:26;100517.22;;;43.60;25.92
62122;BME280;48108;47.532;19.084;2023-06-22T12:09:29;100518.56;;;43.04;27.41
62122;BME280;48108;47.532;19.084;2023-06-22T12:12:32;100521.22;;;43.48;28.06
62122;BME280;48108;47.532;19.084;2023-06-22T12:15:35;100513.62;;;43.74;24.39
62122;BME280;48108;47.532;19.084;2023-06-22T12:18:38;100511.06;;;43.40;27.07
62122;BME280;48108;47.532;19.084;2023-06-22T12:21:41;100502.38;;;43.05;25.55
62122;BME280;48108;47.532;19.084;2023-06-22T12:24:44;100497.22;;;43.24;26.14
62122;BME280;48108;47.532;19.084;2023-06-22T12:27:47;100498.25;;;43.89;24.71
62122;BME280;48108;47.532;19.084;2023-06-22T12:30:50;100489.41;;;44.59;24.13
62122;BME280;48108;47.532;19.084;2023-06-22T12:33:53;100480.91;;;44.45;23.86
62122;BME280;48108;47.532;19.084;2023-06-22T12:36:56;100478.06;;;44.55;24.28
62122;BME280;48108;47.532;19.084;2023-06-22T12:39:59;100484.09;;;44.86;23.75
62122;BME280;48108;47.532;19.084;2023-06-22T12:43:01;100477.25;;;46.31;22.93
62122;BME280;48108;47.532;19.084;2023-06-22T12:46:04;100481.41;;;45.56;22.60
62122;BME280;48108;47.532;19.084;2023-06-22T12:49:07;100482.00;;;45.04;24.69
62122;BME280;48108;47.532;19.084;2023-06-22T12:52:10;100483.53;;;46.08;22.48
62122;BME280;48108;47.532;19.084;2023-06-22T12:55:13;100481.25;;;45.78;23.58
62122;BME280;48108;47.532;19.084;2023-06-22T12:58:16;100467.69;;;47.24;22.19
62122;BME280;48108;47.532;19.084;2023-06-22T13:01:19;100472.97;;;46.91;22.28
62122;BME280;48108;47.532;19.084;2023-06-22T13:04:22;100477.47;;;46.02;22.20
62122;BME280;48108;47.532;19.084;2023-06-22T13:07:25;100471.59;;;45.64;22.99
62122;BME280;48108;47.532;19.084;2023-06-22T13:10:28;100458.66;;;46.57;21.91
62122;BME280;48108;47.532;19.084;2023-06-22T13:13:31;100458.41;;;45.18;23.45
62122;BME280;48108;47.532;19.084;2023-06-22T13:16:36;100457.03;;;45.48;22.96
62122;BME280;48108;47.532;19.084;2023-06-22T13:19:39;100450.19;;;46.91;22.26
62122;BME280;48108;47.532;19.084;2023-06-22T13:22:42;100453.97;;;48.27;20.77
62122;BME280;48108;47.532;19.084;2023-06-22T13:25:46;100436.91;;;47.12;21.15
62122;BME280;48108;47.532;19.084;2023-06-22T13:28:49;100450.16;;;45.45;23.60
62122;BME280;48108;47.532;19.084;2023-06-22T13:31:52;100445.28;;;46.09;22.00
62122;BME280;48108;47.532;19.084;2023-06-22T13:34:55;100439.69;;;47.19;21.77
62122;BME280;48108;47.532;19.084;2023-06-22T13:37:58;100435.66;;;48.25;20.16
62122;BME280;48108;47.532;19.084;2023-06-22T13:41:00;100436.72;;;45.50;22.65
62122;BME280;48108;47.532;19.084;2023-06-22T13:44:03;100438.13;;;45.90;22.33
62122;BME280;48108;47.532;19.084;2023-06-22T13:47:06;100430.03;;;45.81;22.95
62122;BME280;48108;47.532;19.084;2023-06-22T13:50:09;100440.78;;;45.48;22.67
62122;BME280;48108;47.532;19.084;2023-06-22T13:53:12;100435.56;;;46.51;21.77
62122;BME280;48108;47.532;19.084;2023-06-22T13:56:15;100428.34;;;46.81;21.02
62122;BME280;48108;47.532;19.084;2023-06-22T13:59:18;100422.66;;;47.12;20.78
62122;BME280;48108;47.532;19.084;2023-06-22T14:02:22;100432.00;;;45.29;22.67
62122;BME280;48108;47.532;19.084;2023-06-22T14:05:25;100419.09;;;43.27;25.18
62122;BME280;48108;47.532;19.084;2023-06-22T14:08:28;100418.41;;;41.72;27.78
62122;BME280;48108;47.532;19.084;2023-06-22T14:11:43;100422.81;;;40.71;28.58
62122;BME280;48108;47.532;19.084;2023-06-22T14:14:46;100419.97;;;40.18;29.38
62122;BME280;48108;47.532;19.084;2023-06-22T14:17:49;100420.00;;;39.33;31.60
62122;BME280;48108;47.532;19.084;2023-06-22T14:20:52;100411.69;;;38.66;32.19
62122;BME280;48108;47.532;19.084;2023-06-22T14:23:55;100408.59;;;38.04;32.94
62122;BME280;48108;47.532;19.084;2023-06-22T14:26:59;100405.53;;;37.50;34.46
62122;BME280;48108;47.532;19.084;2023-06-22T14:30:07;100403.06;;;35.94;37.14
62122;BME280;48108;47.532;19.084;2023-06-22T14:33:10;100391.16;;;35.97;37.64
62122;BME280;48108;47.532;19.084;2023-06-22T14:36:14;100390.84;;;36.10;38.33
62122;BME280;48108;47.532;19.084;2023-06-22T14:39:21;100394.66;;;35.81;37.76
62122;BME280;48108;47.532;19.084;2023-06-22T14:42:24;100385.28;;;35.32;37.56
62122;BME280;48108;47.532;19.084;2023-06-22T14:45:29;100387.72;;;35.33;38.30
62122;BME280;48108;47.532;19.084;2023-06-22T14:48:32;100388.38;;;34.76;39.21
62122;BME280;48108;47.532;19.084;2023-06-22T14:51:35;100386.06;;;34.78;42.08
62122;BME280;48108;47.532;19.084;2023-06-22T14:54:38;100388.69;;;34.95;38.68
62122;BME280;48108;47.532;19.084;2023-06-22T14:57:41;100381.34;;;34.70;42.38
62122;BME280;48108;47.532;19.084;2023-06-22T15:00:44;100381.28;;;34.79;40.35
62122;BME280;48108;47.532;19.084;2023-06-22T15:03:47;100385.38;;;34.51;40.45
62122;BME280;48108;47.532;19.084;2023-06-22T15:06:50;100374.88;;;34.48;40.53
62122;BME280;48108;47.532;19.084;2023-06-22T15:09:53;100366.09;;;34.08;39.76
62122;BME280;48108;47.532;19.084;2023-06-22T15:12:56;100366.94;;;34.29;42.00
62122;BME280;48108;47.532;19.084;2023-06-22T15:15:59;100368.94;;;33.91;42.27
62122;BME280;48108;47.532;19.084;2023-06-22T15:19:02;100364.03;;;33.88;41.84
62122;BME280;48108;47.532;19.084;2023-06-22T15:22:05;100358.56;;;33.44;41.97
62122;BME280;48108;47.532;19.084;2023-06-22T15:25:08;100354.41;;;33.68;42.44
62122;BME280;48108;47.532;19.084;2023-06-22T15:28:12;100348.94;;;33.80;42.86
62122;BME280;48108;47.532;19.084;2023-06-22T15:31:15;100348.78;;;33.76;41.97
62122;BME280;48108;47.532;19.084;2023-06-22T15:34:18;100352.44;;;33.51;42.01
62122;BME280;48108;47.532;19.084;2023-06-22T15:37:21;100354.59;;;33.45;42.65
62122;BME280;48108;47.532;19.084;2023-06-22T15:40:24;100349.37;;;33.44;44.75
62122;BME280;48108;47.532;19.084;2023-06-22T15:43:26;100363.50;;;33.30;43.55
62122;BME280;48108;47.532;19.084;2023-06-22T15:46:29;100352.37;;;33.21;45.49
62122;BME280;48108;47.532;19.084;2023-06-22T15:49:32;100355.66;;;33.23;43.19
